createdAt,value
2018-12-26T00:00:39.082Z,3.65
2018-12-26T00:01:39.161Z,3.61
2018-12-26T00:02:39.067Z,3.61
2018-12-26T00:03:39.054Z,3.62
2018-12-26T00:04:39.056Z,3.57
2018-12-26T00:05:39.136Z,3.55
2018-12-26T00:06:39.022Z,3.51
2018-12-26T00:07:39.010Z,3.61
2018-12-26T00:08:38.997Z,3.51
2018-12-26T00:09:39.002Z,3.52
2018-12-26T00:10:38.976Z,3.57
2018-12-26T00:11:38.965Z,3.54
2018-12-26T00:12:38.970Z,3.45
2018-12-26T00:13:38.948Z,3.48
2018-12-26T00:14:38.934Z,3.58
2018-12-26T00:15:38.943Z,3.51
2018-12-26T00:16:38.913Z,3.51
2018-12-26T00:17:38.901Z,3.40
2018-12-26T00:18:38.957Z,3.47
2018-12-26T00:19:38.931Z,3.54
2018-12-26T00:20:38.906Z,3.54
2018-12-26T00:21:38.860Z,3.32
2018-12-26T00:22:38.845Z,3.51
2018-12-26T00:23:38.834Z,3.48
2018-12-26T00:24:38.826Z,3.33
2018-12-26T00:25:38.818Z,3.33
2018-12-26T00:26:38.839Z,3.35
2018-12-26T00:27:38.794Z,3.35
2018-12-26T00:28:38.783Z,3.31
2018-12-26T00:29:38.774Z,3.33
2018-12-26T00:30:38.762Z,3.33
2018-12-26T00:31:38.749Z,3.36
2018-12-26T00:32:38.753Z,3.32
2018-12-26T00:33:38.726Z,3.26
2018-12-26T00:34:38.719Z,3.21
2018-12-26T00:35:38.707Z,3.33
2018-12-26T00:36:38.711Z,3.28
2018-12-26T00:37:38.707Z,3.13
2018-12-26T00:38:38.675Z,3.15
2018-12-26T00:39:38.665Z,3.17
2018-12-26T00:40:38.652Z,3.20
2018-12-26T00:41:38.644Z,3.18
2018-12-26T00:42:38.653Z,3.14
2018-12-26T00:43:38.625Z,3.18
2018-12-26T00:44:38.610Z,3.18
2018-12-26T00:45:38.599Z,3.14
2018-12-26T00:46:38.589Z,3.13
2018-12-26T00:47:38.581Z,3.18
2018-12-26T00:48:38.582Z,3.14
2018-12-26T00:49:38.555Z,3.11
2018-12-26T00:50:38.546Z,3.20
2018-12-26T00:51:38.538Z,3.14
2018-12-26T00:52:38.532Z,3.13
2018-12-26T00:53:38.529Z,3.13
2018-12-26T00:54:38.504Z,3.06
2018-12-26T00:55:38.491Z,3.13
2018-12-26T00:56:38.482Z,3.06
2018-12-26T00:57:38.469Z,3.06
2018-12-26T00:58:38.474Z,3.08
2018-12-26T00:59:38.447Z,3.03
2018-12-26T01:00:38.440Z,3.11
2018-12-26T01:01:38.428Z,3.10
2018-12-26T01:02:38.417Z,3.13
2018-12-26T01:03:38.421Z,3.06
2018-12-26T01:04:38.394Z,3.02
2018-12-26T01:05:38.400Z,3.02
2018-12-26T01:06:38.373Z,3.13
2018-12-26T01:07:38.363Z,3.05
2018-12-26T01:08:38.351Z,3.10
2018-12-26T01:09:38.341Z,2.99
2018-12-26T01:10:38.351Z,3.03
2018-12-26T01:11:38.320Z,3.13
2018-12-26T01:12:38.313Z,2.99
2018-12-26T01:13:38.300Z,3.02
2018-12-26T01:14:38.287Z,2.99
2018-12-26T01:15:38.277Z,3.03
2018-12-26T01:16:38.279Z,3.02
2018-12-26T01:17:38.255Z,3.08
2018-12-26T01:18:38.248Z,2.90
2018-12-26T01:19:38.233Z,2.92
2018-12-26T01:20:38.222Z,2.95
2018-12-26T01:21:38.248Z,2.93
2018-12-26T01:22:38.204Z,2.90
2018-12-26T01:23:38.189Z,2.95
2018-12-26T01:24:38.182Z,2.90
2018-12-26T01:25:38.168Z,2.92
2018-12-26T01:26:38.162Z,2.84
2018-12-26T01:27:38.165Z,2.82
2018-12-26T01:28:38.138Z,2.82
2018-12-26T01:29:38.138Z,2.77
2018-12-26T01:30:38.121Z,2.77
2018-12-26T01:31:38.108Z,2.79
2018-12-26T01:32:38.116Z,2.78
2018-12-26T01:33:38.084Z,2.77
2018-12-26T01:34:38.077Z,2.74
2018-12-26T01:35:38.063Z,2.77
2018-12-26T01:36:38.057Z,2.78
2018-12-26T01:37:38.043Z,2.78
2018-12-26T01:38:38.075Z,2.63
2018-12-26T01:39:38.023Z,2.71
2018-12-26T01:40:38.010Z,2.69
2018-12-26T01:41:37.997Z,2.66
2018-12-26T01:42:37.991Z,2.75
2018-12-26T01:43:37.979Z,2.66
2018-12-26T01:44:37.981Z,2.69
2018-12-26T01:45:37.972Z,2.66
2018-12-26T01:46:37.958Z,2.77
2018-12-26T01:47:37.937Z,2.66
2018-12-26T01:48:37.928Z,2.66
2018-12-26T01:49:37.914Z,2.64
2018-12-26T01:50:37.902Z,2.71
2018-12-26T01:51:37.907Z,2.66
2018-12-26T01:52:37.880Z,2.63
2018-12-26T01:53:37.884Z,2.60
2018-12-26T01:54:37.860Z,2.66
2018-12-26T01:55:37.848Z,2.67
2018-12-26T01:56:37.840Z,2.64
2018-12-26T01:57:37.841Z,2.64
2018-12-26T01:58:37.823Z,2.66
2018-12-26T01:59:37.809Z,2.67
2018-12-26T02:00:37.799Z,2.69
2018-12-26T02:01:37.784Z,2.72
2018-12-26T02:02:37.787Z,2.61
2018-12-26T02:03:37.765Z,2.67
2018-12-26T02:04:37.763Z,2.71
2018-12-26T02:05:37.743Z,2.66
2018-12-26T02:06:37.733Z,2.69
2018-12-26T02:07:37.726Z,2.60
2018-12-26T02:08:37.740Z,2.61
2018-12-26T02:09:37.699Z,2.61
2018-12-26T02:10:37.694Z,2.61
2018-12-26T02:11:37.678Z,2.64
2018-12-26T02:12:37.668Z,2.63
2018-12-26T02:13:37.666Z,2.63
2018-12-26T02:14:37.671Z,2.61
2018-12-26T02:15:37.639Z,2.67
2018-12-26T02:16:37.624Z,2.60
2018-12-26T02:17:37.616Z,2.57
2018-12-26T02:18:37.723Z,2.63
2018-12-26T02:19:37.591Z,2.60
2018-12-26T02:20:37.598Z,2.64
2018-12-26T02:21:37.571Z,2.60
2018-12-26T02:22:37.560Z,2.64
2018-12-26T02:23:37.565Z,2.66
2018-12-26T02:24:37.540Z,2.66
2018-12-26T02:25:37.545Z,2.60
2018-12-26T02:26:37.517Z,2.64
2018-12-26T02:27:37.511Z,2.64
2018-12-26T02:28:37.498Z,2.66
2018-12-26T02:29:37.484Z,2.57
2018-12-26T02:30:37.501Z,2.61
2018-12-26T02:31:37.506Z,2.60
2018-12-26T02:32:37.455Z,2.59
2018-12-26T02:33:37.448Z,2.53
2018-12-26T02:34:37.435Z,2.54
2018-12-26T02:35:37.421Z,2.54
2018-12-26T02:36:37.426Z,2.49
2018-12-26T02:37:37.408Z,2.61
2018-12-26T02:38:37.391Z,2.54
2018-12-26T02:39:37.384Z,2.54
2018-12-26T02:40:37.382Z,2.57
2018-12-26T02:41:37.360Z,2.53
2018-12-26T02:42:37.352Z,2.56
2018-12-26T02:43:37.338Z,2.52
2018-12-26T02:44:37.325Z,2.57
2018-12-26T02:45:37.331Z,2.63
2018-12-26T02:46:37.304Z,2.66
2018-12-26T02:47:37.326Z,2.57
2018-12-26T02:48:37.287Z,2.59
2018-12-26T02:49:37.274Z,2.63
2018-12-26T02:50:37.265Z,2.60
2018-12-26T02:51:37.249Z,2.56
2018-12-26T02:52:37.242Z,2.45
2018-12-26T02:53:37.287Z,2.59
2018-12-26T02:54:37.219Z,2.48
2018-12-26T02:55:37.211Z,2.48
2018-12-26T02:56:46.134Z,2.57
2018-12-26T02:57:38.187Z,2.49
2018-12-26T02:58:37.177Z,2.49
2018-12-26T02:59:37.214Z,2.56
2018-12-26T03:00:37.156Z,2.46
2018-12-26T03:01:37.144Z,2.42
2018-12-26T03:02:37.136Z,2.49
2018-12-26T03:03:37.133Z,2.48
2018-12-26T03:04:37.119Z,2.45
2018-12-26T03:05:37.119Z,2.43
2018-12-26T03:06:37.102Z,2.45
2018-12-26T03:07:37.097Z,2.39
2018-12-26T03:08:37.083Z,2.43
2018-12-26T03:09:37.058Z,2.43
2018-12-26T03:10:37.071Z,2.43
2018-12-26T03:11:37.037Z,2.46
2018-12-26T03:12:37.030Z,2.46
2018-12-26T03:13:37.019Z,2.48
2018-12-26T03:14:37.042Z,2.52
2018-12-26T03:15:36.997Z,2.43
2018-12-26T03:16:36.995Z,2.45
2018-12-26T03:17:36.979Z,2.46
2018-12-26T03:18:36.964Z,2.46
2018-12-26T03:19:36.956Z,2.52
2018-12-26T03:20:36.958Z,2.43
2018-12-26T03:21:36.930Z,2.48
2018-12-26T03:22:36.922Z,2.52
2018-12-26T03:23:36.912Z,2.42
2018-12-26T03:24:36.916Z,2.45
2018-12-26T03:25:36.918Z,2.41
2018-12-26T03:26:36.879Z,2.43
2018-12-26T03:27:36.872Z,2.46
2018-12-26T03:28:36.856Z,2.53
2018-12-26T03:29:36.876Z,2.39
2018-12-26T03:30:36.837Z,2.48
2018-12-26T03:31:36.827Z,2.49
2018-12-26T03:32:36.820Z,2.48
2018-12-26T03:33:36.802Z,2.42
2018-12-26T03:34:36.801Z,2.53
2018-12-26T03:35:36.793Z,2.53
2018-12-26T03:36:36.788Z,2.46
2018-12-26T03:37:36.764Z,2.48
2018-12-26T03:38:36.748Z,2.39
2018-12-26T03:39:36.740Z,2.43
2018-12-26T03:40:36.735Z,2.52
2018-12-26T03:41:36.735Z,2.41
2018-12-26T03:42:36.732Z,2.45
2018-12-26T03:43:36.700Z,2.54
2018-12-26T03:44:36.703Z,2.52
2018-12-26T03:45:36.676Z,2.46
2018-12-26T03:46:36.683Z,2.48
2018-12-26T03:47:36.655Z,2.49
2018-12-26T03:48:36.661Z,2.45
2018-12-26T03:49:36.632Z,2.52
2018-12-26T03:50:36.621Z,2.42
2018-12-26T03:51:36.613Z,2.46
2018-12-26T03:52:36.621Z,2.46
2018-12-26T03:53:36.614Z,2.43
2018-12-26T03:54:36.582Z,2.48
2018-12-26T03:55:36.572Z,2.49
2018-12-26T03:56:36.559Z,2.34
2018-12-26T03:57:36.564Z,2.46
2018-12-26T03:58:36.549Z,2.41
2018-12-26T03:59:36.526Z,2.36
2018-12-26T04:00:36.534Z,2.42
2018-12-26T04:01:36.507Z,2.39
2018-12-26T04:02:36.495Z,2.45
2018-12-26T04:03:36.494Z,2.49
2018-12-26T04:04:36.472Z,2.38
2018-12-26T04:05:36.477Z,2.45
2018-12-26T04:06:36.459Z,2.36
2018-12-26T04:07:36.443Z,2.42
2018-12-26T04:08:36.430Z,2.49
2018-12-26T04:09:36.419Z,2.36
2018-12-26T04:10:36.428Z,2.53
2018-12-26T04:11:36.399Z,2.42
2018-12-26T04:12:36.404Z,2.43
2018-12-26T04:13:36.375Z,2.49
2018-12-26T04:14:36.369Z,2.35
2018-12-26T04:15:36.369Z,2.46
2018-12-26T04:16:36.361Z,2.49
2018-12-26T04:17:36.363Z,2.48
2018-12-26T04:18:36.327Z,2.39
2018-12-26T04:19:36.312Z,2.46
2018-12-26T04:20:36.301Z,2.42
2018-12-26T04:21:36.294Z,2.35
2018-12-26T04:22:36.281Z,2.48
2018-12-26T04:23:36.285Z,2.46
2018-12-26T04:24:36.261Z,2.45
2018-12-26T04:25:36.249Z,2.53
2018-12-26T04:26:36.240Z,2.46
2018-12-26T04:27:36.240Z,2.43
2018-12-26T04:28:36.219Z,2.38
2018-12-26T04:29:36.205Z,2.34
2018-12-26T04:30:36.193Z,2.49
2018-12-26T04:31:36.186Z,2.39
2018-12-26T04:32:36.193Z,2.43
2018-12-26T04:33:36.181Z,2.53
2018-12-26T04:34:36.156Z,2.46
2018-12-26T04:35:36.142Z,2.53
2018-12-26T04:36:36.130Z,2.46
2018-12-26T04:37:36.158Z,2.54
2018-12-26T04:38:36.111Z,2.43
2018-12-26T04:39:36.103Z,2.42
2018-12-26T04:40:36.089Z,2.48
2018-12-26T04:41:36.081Z,2.57
2018-12-26T04:42:36.069Z,2.54
2018-12-26T04:43:36.084Z,2.56
2018-12-26T04:44:36.047Z,2.48
2018-12-26T04:45:36.040Z,2.56
2018-12-26T04:46:36.025Z,2.54
2018-12-26T04:47:36.015Z,2.54
2018-12-26T04:48:36.087Z,2.53
2018-12-26T04:49:36.009Z,2.54
2018-12-26T04:50:35.983Z,2.49
2018-12-26T04:51:35.971Z,2.54
2018-12-26T04:52:35.964Z,2.48
2018-12-26T04:53:35.949Z,2.53
2018-12-26T04:54:35.938Z,2.54
2018-12-26T04:55:35.948Z,2.49
2018-12-26T04:56:35.915Z,2.57
2018-12-26T04:57:35.918Z,2.56
2018-12-26T04:58:35.895Z,2.57
2018-12-26T04:59:35.889Z,2.59
2018-12-26T05:00:35.892Z,2.49
2018-12-26T05:01:35.866Z,2.52
2018-12-26T05:02:35.853Z,2.54
2018-12-26T05:03:35.862Z,2.57
2018-12-26T05:04:35.834Z,2.56
2018-12-26T05:05:35.820Z,2.57
2018-12-26T05:06:35.810Z,2.61
2018-12-26T05:07:35.807Z,2.54
2018-12-26T05:08:35.789Z,2.64
2018-12-26T05:09:35.819Z,2.60
2018-12-26T05:10:35.771Z,2.53
2018-12-26T05:11:35.756Z,2.48
2018-12-26T05:12:35.748Z,2.59
2018-12-26T05:13:35.739Z,2.53
2018-12-26T05:14:35.729Z,2.57
2018-12-26T05:15:35.731Z,2.57
2018-12-26T05:16:35.705Z,2.46
2018-12-26T05:17:35.704Z,2.49
2018-12-26T05:18:35.686Z,2.49
2018-12-26T05:19:35.675Z,2.43
2018-12-26T05:20:35.661Z,2.46
2018-12-26T05:21:35.653Z,2.52
2018-12-26T05:22:35.672Z,2.45
2018-12-26T05:23:35.628Z,2.53
2018-12-26T05:24:35.719Z,2.49
2018-12-26T05:25:35.609Z,2.45
2018-12-26T05:26:35.600Z,2.45
2018-12-26T05:27:35.588Z,2.48
2018-12-26T05:28:35.597Z,2.46
2018-12-26T05:29:35.568Z,2.43
2018-12-26T05:30:35.558Z,2.53
2018-12-26T05:31:35.543Z,2.45
2018-12-26T05:32:35.536Z,2.35
2018-12-26T05:33:35.537Z,2.49
2018-12-26T05:34:35.590Z,2.52
2018-12-26T05:35:35.499Z,2.41
2018-12-26T05:36:35.490Z,2.45
2018-12-26T05:37:35.483Z,2.46
2018-12-26T05:38:35.484Z,2.45
2018-12-26T05:39:35.457Z,2.46
2018-12-26T05:40:35.458Z,2.52
2018-12-26T05:41:35.436Z,2.39
2018-12-26T05:42:35.429Z,2.42
2018-12-26T05:43:35.416Z,2.43
2018-12-26T05:44:35.422Z,2.43
2018-12-26T05:45:35.396Z,2.41
2018-12-26T05:46:35.388Z,2.35
2018-12-26T05:47:35.374Z,2.34
2018-12-26T05:48:35.363Z,2.28
2018-12-26T05:49:35.371Z,2.30
2018-12-26T05:50:35.339Z,2.35
2018-12-26T05:51:35.331Z,2.30
2018-12-26T05:52:35.317Z,2.28
2018-12-26T05:53:35.310Z,2.25
2018-12-26T05:54:35.314Z,2.23
2018-12-26T05:55:36.495Z,2.24
2018-12-26T05:56:35.277Z,2.25
2018-12-26T05:57:42.567Z,2.14
2018-12-26T05:58:36.254Z,2.20
2018-12-26T05:59:35.243Z,2.14
2018-12-26T06:00:35.233Z,2.09
2018-12-26T06:01:35.238Z,2.12
2018-12-26T06:02:35.227Z,2.18
2018-12-26T06:03:35.203Z,2.18
2018-12-26T06:04:35.191Z,2.14
2018-12-26T06:05:35.184Z,2.10
2018-12-26T06:06:35.204Z,2.12
2018-12-26T06:07:35.160Z,2.18
2018-12-26T06:08:35.147Z,2.06
2018-12-26T06:09:35.140Z,2.07
2018-12-26T06:10:35.130Z,2.02
2018-12-26T06:11:35.119Z,1.99
2018-12-26T06:12:35.119Z,2.07
2018-12-26T06:13:35.099Z,2.03
2018-12-26T06:14:35.086Z,2.05
2018-12-26T06:15:35.074Z,2.00
2018-12-26T06:16:35.066Z,2.02
2018-12-26T06:17:35.071Z,2.00
2018-12-26T06:18:35.061Z,2.02
2018-12-26T06:19:35.030Z,2.00
2018-12-26T06:20:35.021Z,2.05
2018-12-26T06:21:35.012Z,2.00
2018-12-26T06:22:35.116Z,1.98
2018-12-26T06:23:35.011Z,1.99
2018-12-26T06:24:34.996Z,2.00
2018-12-26T06:25:34.972Z,1.98
2018-12-26T06:26:34.959Z,1.99
2018-12-26T06:27:34.947Z,1.90
2018-12-26T06:28:34.936Z,1.88
2018-12-26T06:29:34.939Z,1.88
2018-12-26T06:30:34.929Z,1.87
2018-12-26T06:31:34.904Z,1.91
2018-12-26T06:32:34.911Z,1.90
2018-12-26T06:33:34.884Z,1.87
2018-12-26T06:34:34.876Z,1.90
2018-12-26T06:35:34.860Z,1.86
2018-12-26T06:36:34.851Z,2.02
2018-12-26T06:37:34.855Z,1.98
2018-12-26T06:38:34.831Z,1.90
2018-12-26T06:39:34.832Z,1.95
2018-12-26T06:40:34.809Z,1.90
2018-12-26T06:41:34.794Z,1.87
2018-12-26T06:42:34.795Z,1.88
2018-12-26T06:43:34.776Z,1.84
2018-12-26T06:44:34.783Z,1.93
2018-12-26T06:45:34.753Z,1.98
2018-12-26T06:46:34.744Z,1.87
2018-12-26T06:47:34.734Z,1.90
2018-12-26T06:48:34.721Z,1.93
2018-12-26T06:49:34.733Z,1.87
2018-12-26T06:50:34.701Z,1.99
2018-12-26T06:51:34.691Z,1.91
2018-12-26T06:52:34.702Z,1.90
2018-12-26T06:53:34.667Z,1.86
2018-12-26T06:54:34.658Z,1.90
2018-12-26T06:55:34.648Z,1.87
2018-12-26T06:56:34.636Z,1.95
2018-12-26T06:57:34.627Z,1.90
2018-12-26T06:58:34.632Z,1.91
2018-12-26T06:59:34.606Z,1.90
2018-12-26T07:00:34.613Z,1.90
2018-12-26T07:01:34.581Z,1.88
2018-12-26T07:02:34.571Z,1.87
2018-12-26T07:03:34.579Z,1.90
2018-12-26T07:04:34.551Z,1.88
2018-12-26T07:05:34.541Z,1.88
2018-12-26T07:06:34.530Z,1.84
2018-12-26T07:07:34.517Z,1.90
2018-12-26T07:08:34.525Z,1.95
2018-12-26T07:09:34.497Z,1.87
2018-12-26T07:10:34.504Z,1.87
2018-12-26T07:11:34.488Z,1.88
2018-12-26T07:12:34.465Z,1.87
2018-12-26T07:13:34.477Z,1.90
2018-12-26T07:14:34.444Z,1.87
2018-12-26T07:15:34.436Z,1.91
2018-12-26T07:16:34.427Z,1.91
2018-12-26T07:17:34.411Z,1.84
2018-12-26T07:18:34.402Z,1.87
2018-12-26T07:19:34.406Z,1.90
2018-12-26T07:20:34.382Z,1.87
2018-12-26T07:21:34.372Z,1.90
2018-12-26T07:22:34.376Z,1.81
2018-12-26T07:23:34.350Z,1.90
2018-12-26T07:24:34.354Z,1.87
2018-12-26T07:25:34.326Z,1.91
2018-12-26T07:26:34.318Z,1.91
2018-12-26T07:27:34.305Z,1.91
2018-12-26T07:28:34.314Z,1.86
2018-12-26T07:29:34.286Z,1.87
2018-12-26T07:30:34.275Z,1.83
2018-12-26T07:31:34.262Z,1.87
2018-12-26T07:32:34.256Z,1.84
2018-12-26T07:33:34.254Z,1.90
2018-12-26T07:34:41.982Z,1.88
2018-12-26T07:35:35.222Z,1.95
2018-12-26T07:36:34.229Z,1.93
2018-12-26T07:37:34.198Z,1.86
2018-12-26T07:38:34.189Z,1.88
2018-12-26T07:39:34.179Z,1.84
2018-12-26T07:40:34.169Z,1.93
2018-12-26T07:41:34.175Z,1.95
2018-12-26T07:42:34.148Z,1.91
2018-12-26T07:43:34.135Z,1.87
2018-12-26T07:44:34.129Z,2.00
2018-12-26T07:45:34.112Z,1.90
2018-12-26T07:46:34.132Z,1.90
2018-12-26T07:47:34.091Z,1.98
2018-12-26T07:48:34.084Z,1.91
2018-12-26T07:49:34.071Z,1.84
2018-12-26T07:50:34.061Z,1.95
2018-12-26T07:51:34.052Z,1.91
2018-12-26T07:52:34.071Z,2.05
2018-12-26T07:53:34.031Z,1.99
2018-12-26T07:54:34.018Z,1.90
2018-12-26T07:55:34.005Z,1.93
2018-12-26T07:56:33.997Z,1.88
2018-12-26T07:57:33.985Z,1.90
2018-12-26T07:58:33.992Z,1.88
2018-12-26T07:59:37.664Z,1.88
2018-12-26T08:00:33.954Z,1.87
2018-12-26T08:01:33.943Z,1.88
2018-12-26T08:02:33.932Z,1.88
2018-12-26T08:03:33.937Z,2.00
2018-12-26T08:04:33.911Z,1.88
2018-12-26T08:05:33.899Z,1.88
2018-12-26T08:06:33.890Z,1.88
2018-12-26T08:07:33.884Z,1.84
2018-12-26T08:08:33.884Z,1.90
2018-12-26T08:09:33.874Z,1.90
2018-12-26T08:10:33.861Z,2.02
2018-12-26T08:11:33.835Z,1.88
2018-12-26T08:12:33.824Z,2.05
2018-12-26T08:13:33.816Z,2.00
2018-12-26T08:14:33.806Z,1.88
2018-12-26T08:15:33.810Z,1.99
2018-12-26T08:16:33.783Z,1.99
2018-12-26T08:17:33.775Z,1.98
2018-12-26T08:18:33.780Z,1.95
2018-12-26T08:19:33.752Z,2.00
2018-12-26T08:20:33.756Z,2.00
2018-12-26T08:21:33.753Z,1.99
2018-12-26T08:22:33.721Z,1.95
2018-12-26T08:23:33.709Z,2.12
2018-12-26T08:24:33.699Z,2.12
2018-12-26T08:25:33.685Z,2.14
2018-12-26T08:26:33.673Z,2.10
2018-12-26T08:27:33.675Z,2.16
2018-12-26T08:28:33.655Z,2.10
2018-12-26T08:29:33.644Z,2.10
2018-12-26T08:30:33.635Z,2.10
2018-12-26T08:31:33.626Z,2.09
2018-12-26T08:32:33.628Z,2.09
2018-12-26T08:33:33.602Z,2.02
2018-12-26T08:34:33.589Z,2.07
2018-12-26T08:35:33.581Z,1.93
2018-12-26T08:36:33.589Z,2.02
2018-12-26T08:37:33.558Z,2.02
2018-12-26T08:38:33.549Z,2.02
2018-12-26T08:39:33.537Z,1.95
2018-12-26T08:40:33.528Z,2.03
2018-12-26T08:41:33.514Z,1.88
2018-12-26T08:42:33.527Z,1.93
2018-12-26T08:43:33.495Z,1.98
2018-12-26T08:44:33.485Z,2.02
2018-12-26T08:45:33.472Z,1.91
2018-12-26T08:46:33.464Z,1.93
2018-12-26T08:47:33.452Z,2.03
2018-12-26T08:48:33.452Z,1.98
2018-12-26T08:49:33.430Z,1.99
2018-12-26T08:50:33.511Z,2.02
2018-12-26T08:51:33.423Z,1.99
2018-12-26T08:52:33.412Z,2.03
2018-12-26T08:53:33.390Z,2.03
2018-12-26T08:54:33.385Z,2.05
2018-12-26T08:55:33.365Z,2.03
2018-12-26T08:56:33.354Z,1.98
2018-12-26T08:57:33.360Z,2.00
2018-12-26T08:58:35.278Z,1.98
2018-12-26T08:59:33.325Z,2.00
2018-12-26T09:00:33.314Z,2.03
2018-12-26T09:01:33.300Z,2.07
2018-12-26T09:02:33.311Z,2.09
2018-12-26T09:03:33.297Z,2.05
2018-12-26T09:04:33.272Z,2.09
2018-12-26T09:05:33.259Z,2.03
2018-12-26T09:06:33.248Z,2.10
2018-12-26T09:07:33.240Z,2.12
2018-12-26T09:08:33.244Z,1.98
2018-12-26T09:09:33.219Z,2.14
2018-12-26T09:10:33.209Z,2.16
2018-12-26T09:11:33.195Z,2.02
2018-12-26T09:12:33.186Z,2.10
2018-12-26T09:13:33.291Z,2.18
2018-12-26T09:14:33.180Z,2.12
2018-12-26T09:15:33.155Z,2.16
2018-12-26T09:16:33.145Z,2.12
2018-12-26T09:17:33.136Z,2.14
2018-12-26T09:18:33.121Z,2.14
2018-12-26T09:19:33.133Z,2.17
2018-12-26T09:20:33.100Z,2.12
2018-12-26T09:21:33.088Z,2.23
2018-12-26T09:22:33.079Z,2.20
2018-12-26T09:23:33.068Z,2.18
2018-12-26T09:24:33.059Z,2.18
2018-12-26T09:25:33.059Z,2.16
2018-12-26T09:26:33.036Z,2.16
2018-12-26T09:27:33.030Z,2.18
2018-12-26T09:28:33.015Z,2.14
2018-12-26T09:29:33.020Z,2.14
2018-12-26T09:30:33.008Z,2.18
2018-12-26T09:31:32.983Z,2.20
2018-12-26T09:32:32.970Z,2.27
2018-12-26T09:33:32.962Z,2.14
2018-12-26T09:34:32.947Z,2.24
2018-12-26T09:35:32.959Z,2.25
2018-12-26T09:36:32.931Z,2.21
2018-12-26T09:37:32.919Z,2.21
2018-12-26T09:38:32.906Z,2.25
2018-12-26T09:39:32.895Z,2.18
2018-12-26T09:40:32.885Z,2.24
2018-12-26T09:41:32.888Z,2.18
2018-12-26T09:42:32.864Z,2.18
2018-12-26T09:43:32.855Z,2.28
2018-12-26T09:44:32.842Z,2.20
2018-12-26T09:45:32.834Z,2.21
2018-12-26T09:46:32.841Z,2.30
2018-12-26T09:47:32.811Z,2.23
2018-12-26T09:48:32.800Z,2.24
2018-12-26T09:49:32.787Z,2.28
2018-12-26T09:50:32.781Z,2.28
2018-12-26T09:51:32.820Z,2.23
2018-12-26T09:52:32.760Z,2.35
2018-12-26T09:53:32.745Z,2.21
2018-12-26T09:54:32.739Z,2.25
2018-12-26T09:55:32.724Z,2.23
2018-12-26T09:56:32.714Z,2.23
2018-12-26T09:57:32.730Z,2.27
2018-12-26T09:58:32.695Z,2.36
2018-12-26T09:59:32.681Z,2.31
2018-12-26T10:00:32.669Z,2.35
2018-12-26T10:01:32.661Z,2.34
2018-12-26T10:02:32.652Z,2.38
2018-12-26T10:03:32.683Z,2.23
2018-12-26T10:04:32.627Z,2.31
2018-12-26T10:05:32.619Z,2.31
2018-12-26T10:06:32.609Z,2.38
2018-12-26T10:07:32.597Z,2.31
2018-12-26T10:08:32.603Z,2.23
2018-12-26T10:09:32.576Z,2.28
2018-12-26T10:10:32.564Z,2.30
2018-12-26T10:11:32.553Z,2.30
2018-12-26T10:12:32.542Z,2.36
2018-12-26T10:13:32.557Z,2.39
2018-12-26T10:14:32.522Z,2.36
2018-12-26T10:15:32.511Z,2.31
2018-12-26T10:16:32.500Z,2.25
2018-12-26T10:17:32.491Z,2.31
2018-12-26T10:18:32.514Z,2.34
2018-12-26T10:19:32.468Z,2.34
2018-12-26T10:20:32.461Z,2.31
2018-12-26T10:21:32.448Z,2.31
2018-12-26T10:22:32.436Z,2.36
2018-12-26T10:23:32.428Z,2.27
2018-12-26T10:24:32.434Z,2.34
2018-12-26T10:25:32.438Z,2.34
2018-12-26T10:26:32.392Z,2.45
2018-12-26T10:27:32.386Z,2.42
2018-12-26T10:28:32.373Z,2.31
2018-12-26T10:29:32.360Z,2.45
2018-12-26T10:30:32.350Z,2.41
2018-12-26T10:31:32.358Z,2.34
2018-12-26T10:32:32.332Z,2.35
2018-12-26T10:33:32.319Z,2.38
2018-12-26T10:34:32.309Z,2.48
2018-12-26T10:35:32.313Z,2.39
2018-12-26T10:36:32.287Z,2.34
2018-12-26T10:37:32.277Z,2.43
2018-12-26T10:38:32.265Z,2.42
2018-12-26T10:39:32.256Z,2.42
2018-12-26T10:40:32.256Z,2.48
2018-12-26T10:41:32.233Z,2.38
2018-12-26T10:42:32.226Z,2.35
2018-12-26T10:43:32.212Z,2.43
2018-12-26T10:44:32.201Z,2.46
2018-12-26T10:45:32.211Z,2.42
2018-12-26T10:46:32.184Z,2.34
2018-12-26T10:47:32.187Z,2.41
2018-12-26T10:48:32.161Z,2.36
2018-12-26T10:49:32.147Z,2.30
2018-12-26T10:50:33.150Z,2.38
2018-12-26T10:51:32.126Z,2.42
2018-12-26T10:52:32.116Z,2.38
2018-12-26T10:53:32.108Z,2.42
2018-12-26T10:54:32.098Z,2.39
2018-12-26T10:55:32.083Z,2.46
2018-12-26T10:56:32.088Z,2.43
2018-12-26T10:57:32.063Z,2.35
2018-12-26T10:58:32.053Z,2.45
2018-12-26T10:59:32.065Z,2.52
2018-12-26T11:00:32.033Z,2.49
2018-12-26T11:01:32.023Z,2.43
2018-12-26T11:02:32.011Z,2.46
2018-12-26T11:03:31.997Z,2.41
2018-12-26T11:04:31.990Z,2.35
2018-12-26T11:05:32.016Z,2.38
2018-12-26T11:06:31.967Z,2.41
2018-12-26T11:07:31.956Z,2.46
2018-12-26T11:08:31.947Z,2.48
2018-12-26T11:09:31.938Z,2.48
2018-12-26T11:10:31.926Z,2.41
2018-12-26T11:11:31.933Z,2.45
2018-12-26T11:12:31.902Z,2.43
2018-12-26T11:13:31.895Z,2.42
2018-12-26T11:14:31.907Z,2.36
2018-12-26T11:15:31.873Z,2.34
2018-12-26T11:16:31.860Z,2.35
2018-12-26T11:17:31.851Z,2.34
2018-12-26T11:18:31.839Z,2.43
2018-12-26T11:19:31.828Z,2.49
2018-12-26T11:20:31.849Z,2.52
2018-12-26T11:21:31.808Z,2.36
2018-12-26T11:22:31.794Z,2.41
2018-12-26T11:23:31.787Z,2.45
2018-12-26T11:24:31.774Z,2.54
2018-12-26T11:25:31.763Z,2.45
2018-12-26T11:26:31.772Z,2.45
2018-12-26T11:27:31.743Z,2.46
2018-12-26T11:28:31.735Z,2.38
2018-12-26T11:29:31.724Z,2.43
2018-12-26T11:30:31.710Z,2.46
2018-12-26T11:31:31.701Z,2.48
2018-12-26T11:32:31.750Z,2.48
2018-12-26T11:33:31.681Z,2.49
2018-12-26T11:34:31.668Z,2.39
2018-12-26T11:35:31.659Z,2.46
2018-12-26T11:36:31.645Z,2.48
2018-12-26T11:37:31.635Z,2.46
2018-12-26T11:38:31.648Z,2.46
2018-12-26T11:39:31.613Z,2.48
2018-12-26T11:40:31.606Z,2.49
2018-12-26T11:41:31.596Z,2.48
2018-12-26T11:42:31.582Z,2.49
2018-12-26T11:43:31.573Z,2.53
2018-12-26T11:44:31.576Z,2.39
2018-12-26T11:45:31.568Z,2.54
2018-12-26T11:46:31.537Z,2.49
2018-12-26T11:47:31.549Z,2.41
2018-12-26T11:48:31.517Z,2.43
2018-12-26T11:49:31.508Z,2.52
2018-12-26T11:50:31.498Z,2.45
2018-12-26T11:51:31.485Z,2.46
2018-12-26T11:52:31.475Z,2.53
2018-12-26T11:53:31.480Z,2.49
2018-12-26T11:54:31.454Z,2.48
2018-12-26T11:55:31.443Z,2.52
2018-12-26T11:56:31.434Z,2.45
2018-12-26T11:57:31.425Z,2.45
2018-12-26T11:58:31.428Z,2.52
2018-12-26T11:59:31.401Z,2.59
2018-12-26T12:00:31.392Z,2.43
2018-12-26T12:01:31.380Z,2.45
2018-12-26T12:02:31.368Z,2.52
2018-12-26T12:03:31.375Z,2.57
2018-12-26T12:04:31.345Z,2.59
2018-12-26T12:05:31.339Z,2.49
2018-12-26T12:06:31.328Z,2.56
2018-12-26T12:07:31.317Z,2.57
2018-12-26T12:08:31.434Z,2.57
2018-12-26T12:09:31.309Z,2.56
2018-12-26T12:10:31.289Z,2.56
2018-12-26T12:11:31.271Z,2.59
2018-12-26T12:12:31.261Z,2.54
2018-12-26T12:13:31.253Z,2.61
2018-12-26T12:14:31.254Z,2.54
2018-12-26T12:15:31.267Z,2.60
2018-12-26T12:16:31.217Z,2.60
2018-12-26T12:17:31.210Z,2.56
2018-12-26T12:18:31.199Z,2.64
2018-12-26T12:19:31.188Z,2.66
2018-12-26T12:20:31.178Z,2.63
2018-12-26T12:21:31.191Z,2.63
2018-12-26T12:22:31.153Z,2.66
2018-12-26T12:23:31.146Z,2.59
2018-12-26T12:24:31.136Z,2.59
2018-12-26T12:25:31.121Z,2.63
2018-12-26T12:26:31.115Z,2.63
2018-12-26T12:27:31.115Z,2.67
2018-12-26T12:28:31.090Z,2.61
2018-12-26T12:29:35.961Z,2.57
2018-12-26T12:30:32.069Z,2.64
2018-12-26T12:31:31.086Z,2.61
2018-12-26T12:32:31.048Z,2.63
2018-12-26T12:33:31.040Z,2.60
2018-12-26T12:34:31.029Z,2.59
2018-12-26T12:35:31.018Z,2.66
2018-12-26T12:36:31.006Z,2.57
2018-12-26T12:37:31.031Z,2.66
2018-12-26T12:38:30.986Z,2.66
2018-12-26T12:39:30.975Z,2.63
2018-12-26T12:40:30.963Z,2.64
2018-12-26T12:41:30.951Z,2.63
2018-12-26T12:42:30.940Z,2.61
2018-12-26T12:43:30.943Z,2.64
2018-12-26T12:44:30.922Z,2.69
2018-12-26T12:45:30.909Z,2.63
2018-12-26T12:46:30.900Z,2.63
2018-12-26T12:47:30.891Z,2.63
2018-12-26T12:48:30.892Z,2.69
2018-12-26T12:49:30.865Z,2.61
2018-12-26T12:50:30.857Z,2.64
2018-12-26T12:51:30.845Z,2.71
2018-12-26T12:52:30.839Z,2.69
2018-12-26T12:53:30.838Z,2.66
2018-12-26T12:54:30.814Z,2.61
2018-12-26T12:55:30.801Z,2.67
2018-12-26T12:56:30.795Z,2.66
2018-12-26T12:57:30.783Z,2.71
2018-12-26T12:58:30.789Z,2.69
2018-12-26T12:59:30.777Z,2.71
2018-12-26T13:00:30.751Z,2.67
2018-12-26T13:01:30.739Z,2.71
2018-12-26T13:02:30.727Z,2.74
2018-12-26T13:03:30.720Z,2.64
2018-12-26T13:04:30.728Z,2.67
2018-12-26T13:05:30.694Z,2.72
2018-12-26T13:06:30.685Z,2.67
2018-12-26T13:07:30.676Z,2.72
2018-12-26T13:08:30.663Z,2.66
2018-12-26T13:09:30.655Z,2.66
2018-12-26T13:10:30.654Z,2.69
2018-12-26T13:11:30.628Z,2.64
2018-12-26T13:12:30.627Z,2.77
2018-12-26T13:13:31.801Z,2.69
2018-12-26T13:14:30.598Z,2.67
2018-12-26T13:15:30.611Z,2.66
2018-12-26T13:16:30.575Z,2.78
2018-12-26T13:17:30.570Z,2.74
2018-12-26T13:18:30.622Z,2.69